Time;durP1;ratioP1;P1;durP2;ratioP2;P2;SDS_P1;SDS_P2;PMS_P1;PMS_P2;Temp;Humidity;BMP_temperature;BMP_pressure;BME280_temperature;BME280_humidity;BME280_pressure;Samples;Min_cycle;Max_cycle;Signal;HPM_P1;HPM_P2
2022/03/10 00:00:12;;;;;;;10.80;5.80;;;;;;;0.74;55.35;99799.75;4462434;32;33977;-75
2022/03/10 00:02:45;;;;;;;10.93;6.37;;;;;;;0.94;54.46;99813.28;4459528;32;34926;-75
2022/03/10 00:05:15;;;;;;;13.68;6.22;;;;;;;0.14;55.96;99813.78;4464474;32;34322;-76
2022/03/10 00:07:43;;;;;;;12.52;6.32;;;;;;;0.20;56.99;99812.28;4470094;32;33557;-75
2022/03/10 00:10:11;;;;;;;12.45;5.97;;;;;;;0.67;54.76;99813.16;4476723;32;33786;-75
2022/03/10 00:12:48;;;;;;;14.87;7.85;;;;;;;0.91;54.03;99813.19;4459744;32;35005;-75
2022/03/10 00:15:19;;;;;;;13.43;7.00;;;;;;;-0.19;57.34;99818.44;4478013;32;34406;-76
2022/03/10 00:17:47;;;;;;;18.92;7.95;;;;;;;0.59;55.01;99819.72;4456736;32;33518;-75
2022/03/10 00:20:15;;;;;;;16.77;7.20;;;;;;;0.25;56.05;99821.88;4474532;32;34799;-76
2022/03/10 00:22:47;;;;;;;14.02;7.03;;;;;;;0.25;55.92;99821.88;4456662;32;35135;-76
2022/03/10 00:25:16;;;;;;;13.50;7.12;;;;;;;0.31;55.43;99814.41;4454511;32;34481;-76
2022/03/10 00:27:46;;;;;;;21.12;8.70;;;;;;;0.48;54.81;99824.44;4456722;32;33499;-76
2022/03/10 00:30:15;;;;;;;17.17;8.90;;;;;;;0.05;55.96;99820.22;4462368;32;33867;-76
2022/03/10 00:32:50;;;;;;;19.40;8.18;;;;;;;0.05;55.92;99820.22;4471747;32;35110;-76
2022/03/10 00:35:20;;;;;;;16.30;7.70;;;;;;;0.47;54.97;99826.09;4478221;32;34570;-75
2022/03/10 00:37:57;;;;;;;12.00;7.62;;;;;;;0.34;54.83;99834.16;4457394;32;34512;-76
2022/03/10 00:40:26;;;;;;;18.20;8.82;;;;;;;-0.01;55.98;99836.22;4463190;32;34800;-76
2022/03/10 00:42:54;;;;;;;12.60;7.57;;;;;;;-0.73;58.85;99841.81;4470888;32;35788;-76
2022/03/10 00:45:21;;;;;;;14.70;7.25;;;;;;;-0.36;57.44;99853.56;4450269;32;34309;-75
2022/03/10 00:47:52;;;;;;;15.52;8.40;;;;;;;-0.77;58.54;99856.16;4472235;32;32491;-76
2022/03/10 00:50:20;;;;;;;13.43;8.27;;;;;;;-0.80;59.11;99856.00;4470246;32;33884;-75
2022/03/10 00:52:48;;;;;;;17.90;7.65;;;;;;;-0.27;58.18;99860.75;4471993;32;35111;-76
2022/03/10 00:55:18;;;;;;;13.55;8.57;;;;;;;0.54;55.38;99858.81;4478554;32;35106;-76
2022/03/10 00:57:46;;;;;;;16.85;7.78;;;;;;;0.48;55.69;99862.88;4455525;32;32806;-75
2022/03/10 01:00:16;;;;;;;16.10;8.15;;;;;;;0.31;56.04;99865.63;4443020;32;33443;-76
2022/03/10 01:02:44;;;;;;;17.70;8.50;;;;;;;0.14;56.65;99870.13;4456060;32;34902;-76
2022/03/10 01:05:13;;;;;;;18.10;8.18;;;;;;;0.93;53.72;99879.06;4460979;32;34195;-76
2022/03/10 01:07:41;;;;;;;12.37;7.80;;;;;;;0.32;55.98;99887.03;4471736;32;33458;-76
2022/03/10 01:10:13;;;;;;;14.23;7.62;;;;;;;0.57;54.25;99891.41;4465715;32;34635;-75
2022/03/10 01:12:42;;;;;;;18.05;8.57;;;;;;;0.56;54.39;99892.19;4456016;32;34895;-77
2022/03/10 01:15:21;;;;;;;18.08;9.10;;;;;;;0.17;56.75;99895.81;4458806;32;33665;-75
2022/03/10 01:17:49;;;;;;;14.55;7.45;;;;;;;0.34;56.78;99899.06;4470022;32;33316;-76
2022/03/10 01:20:19;;;;;;;15.13;7.45;;;;;;;0.68;55.34;99902.06;4455642;32;33931;-76
2022/03/10 01:22:47;;;;;;;18.70;8.40;;;;;;;0.46;60.12;99901.25;4455953;32;35899;-76
2022/03/10 01:25:21;;;;;;;17.52;8.40;;;;;;;0.64;61.46;99897.62;4455378;32;34472;-76
2022/03/10 01:27:50;;;;;;;14.98;8.35;;;;;;;1.07;61.04;99900.09;4469876;32;34153;-77
2022/03/10 01:30:17;;;;;;;15.10;8.27;;;;;;;1.07;63.28;99887.25;4455403;32;34695;-76
2022/03/10 01:32:45;;;;;;;24.27;10.00;;;;;;;1.25;64.71;99899.00;4468848;32;35990;-75
2022/03/10 01:35:15;;;;;;;20.10;8.93;;;;;;;1.45;63.21;99899.72;4455394;32;35322;-76
2022/03/10 01:37:43;;;;;;;18.35;8.00;;;;;;;1.49;61.12;99896.44;4455587;32;33596;-76
2022/03/10 01:40:15;;;;;;;22.48;9.57;;;;;;;1.55;59.18;99906.03;4455268;32;33909;-77
2022/03/10 01:42:44;;;;;;;19.70;10.05;;;;;;;1.57;61.48;99906.94;4469539;32;35077;-76
2022/03/10 01:45:12;;;;;;;14.13;8.27;;;;;;;1.60;62.67;99904.50;4458986;32;35264;-76
2022/03/10 01:47:41;;;;;;;18.83;8.48;;;;;;;1.87;60.83;99914.81;4485061;32;34393;-76
2022/03/10 01:50:11;;;;;;;16.85;8.32;;;;;;;2.31;57.11;99912.81;4469580;32;33847;-77
2022/03/10 01:52:40;;;;;;;24.92;10.40;;;;;;;1.64;60.82;99921.75;4477639;32;35124;-77
2022/03/10 01:55:09;;;;;;;16.55;7.90;;;;;;;1.56;60.35;99918.91;4468360;32;34485;-76
2022/03/10 01:57:37;;;;;;;18.58;8.95;;;;;;;1.78;60.17;99925.66;4455551;32;34357;-76
2022/03/10 02:00:06;;;;;;;16.85;8.55;;;;;;;1.79;60.42;99923.97;4455040;32;33058;-76
2022/03/10 02:02:34;;;;;;;19.02;8.43;;;;;;;1.88;59.48;99921.72;4470607;32;35193;-76
2022/03/10 02:05:03;;;;;;;15.82;8.57;;;;;;;1.99;57.53;99925.50;4457078;32;34484;-76
2022/03/10 02:10:17;;;;;;;16.95;8.15;;;;;;;0.92;61.42;99928.62;4471018;32;33896;-76
2022/03/10 02:12:47;;;;;;;13.27;7.68;;;;;;;0.61;65.33;99941.94;4459669;32;35122;-76
2022/03/10 02:18:07;;;;;;;17.73;8.60;;;;;;;1.27;64.23;99943.53;4471446;32;34298;-76
2022/03/10 02:20:36;;;;;;;15.23;8.15;;;;;;;1.40;64.23;99942.31;4462521;32;33786;-76
2022/03/10 02:23:06;;;;;;;19.25;9.98;;;;;;;1.45;63.72;99943.34;4487054;32;34888;-76
2022/03/10 02:25:36;;;;;;;17.52;8.40;;;;;;;1.19;62.50;99943.25;4453186;32;34945;-76
2022/03/10 02:28:04;;;;;;;18.75;10.00;;;;;;;0.78;66.77;99950.28;4471337;32;33453;-77
2022/03/10 02:30:34;;;;;;;16.37;8.13;;;;;;;0.98;66.96;99952.75;4470723;32;34644;-76
2022/03/10 02:33:02;;;;;;;15.73;8.55;;;;;;;1.33;64.19;99960.03;4470320;32;35027;-76
2022/03/10 02:35:30;;;;;;;22.67;10.00;;;;;;;1.23;61.57;99949.38;4470172;32;35088;-76
2022/03/10 02:37:58;;;;;;;13.00;7.28;;;;;;;1.62;60.43;99957.63;4471247;32;33320;-76
2022/03/10 02:40:27;;;;;;;20.15;9.30;;;;;;;1.38;62.36;99959.31;4470868;32;34859;-76
2022/03/10 02:42:55;;;;;;;21.30;7.72;;;;;;;1.36;62.15;99961.84;4457282;32;35739;-74
2022/03/10 02:45:23;;;;;;;17.12;9.23;;;;;;;0.91;64.68;99967.00;4470670;32;34391;-76
2022/03/10 02:47:51;;;;;;;21.00;9.05;;;;;;;0.92;66.03;99971.34;4457355;32;34308;-76
2022/03/10 02:50:23;;;;;;;19.90;8.32;;;;;;;1.54;62.78;99969.34;4457146;32;33886;-76
2022/03/10 02:52:50;;;;;;;15.30;8.18;;;;;;;1.87;60.60;99971.31;4471056;32;35134;-76
2022/03/10 02:55:19;;;;;;;14.60;7.78;;;;;;;1.23;63.55;99964.78;4459442;32;34474;-76
2022/03/10 02:57:47;;;;;;;15.98;8.75;;;;;;;1.47;61.39;99970.81;4472561;32;33546;-76
2022/03/10 03:00:16;;;;;;;13.65;7.47;;;;;;;0.59;64.12;99970.91;4483192;32;33860;-76
2022/03/10 03:02:46;;;;;;;22.48;9.43;;;;;;;0.92;64.25;99977.31;4456526;32;35761;-76
2022/03/10 03:05:14;;;;;;;16.73;8.90;;;;;;;1.04;64.76;99978.59;4472529;32;35160;-76
2022/03/10 03:07:44;;;;;;;17.17;8.80;;;;;;;1.38;64.12;99987.53;4486627;32;34260;-76
2022/03/10 03:10:12;;;;;;;23.02;9.40;;;;;;;1.53;63.16;99990.66;4468473;32;33818;-76
2022/03/10 03:12:45;;;;;;;17.20;8.75;;;;;;;1.73;62.18;99988.84;4456786;32;35049;-76
2022/03/10 03:15:14;;;;;;;18.27;8.80;;;;;;;1.48;63.85;99992.19;4470509;32;34291;-77
2022/03/10 03:17:41;;;;;;;18.95;8.15;;;;;;;2.11;62.26;99993.53;4456965;32;34254;-76
2022/03/10 03:20:14;;;;;;;21.00;9.00;;;;;;;0.59;67.68;100011.91;4472013;32;34629;-75
2022/03/10 03:22:43;;;;;;;20.05;8.63;;;;;;;0.91;68.27;100003.78;4489740;31;35936;-75
2022/03/10 03:25:14;;;;;;;18.73;9.27;;;;;;;1.21;68.42;100003.19;4498062;31;34124;-75
2022/03/10 03:27:46;;;;;;;19.20;10.00;;;;;;;1.38;68.05;99997.81;4457285;32;33417;-76
2022/03/10 03:30:15;;;;;;;23.27;10.85;;;;;;;1.04;70.86;100004.25;4461634;32;33848;-76
2022/03/10 03:32:44;;;;;;;17.52;9.35;;;;;;;1.40;69.25;100004.75;4486053;32;35648;-76
2022/03/10 03:35:13;;;;;;;20.15;9.50;;;;;;;1.42;68.06;100017.66;4470209;32;35072;-75
2022/03/10 03:37:40;;;;;;;21.05;10.63;;;;;;;1.32;69.27;100019.87;4456526;32;33527;-75
2022/03/10 03:40:09;;;;;;;22.83;10.90;;;;;;;2.02;69.16;100028.34;4470240;32;34014;-75
2022/03/10 03:42:37;;;;;;;20.92;10.05;;;;;;;1.49;69.73;100027.31;4456669;32;35145;-76
2022/03/10 03:45:09;;;;;;;18.15;9.82;;;;;;;2.30;68.03;100029.31;4456663;32;34446;-74
2022/03/10 03:47:36;;;;;;;22.10;9.40;;;;;;;1.89;67.65;100036.47;4456472;32;33245;-75
2022/03/10 03:50:05;;;;;;;26.75;10.00;;;;;;;1.44;68.38;100039.09;4455423;32;34999;-74
2022/03/10 03:52:33;;;;;;;17.92;10.63;;;;;;;1.80;67.75;100041.25;4456487;32;33009;-76
2022/03/10 03:55:08;;;;;;;20.83;10.05;;;;;;;2.07;66.93;100043.94;4456420;32;34408;-74
2022/03/10 03:57:36;;;;;;;26.58;10.70;;;;;;;2.27;65.61;100050.63;4471905;32;34807;-76
2022/03/10 04:00:07;;;;;;;21.77;10.90;;;;;;;2.34;65.51;100059.41;4472221;32;34156;-76
2022/03/10 04:02:36;;;;;;;18.17;10.07;;;;;;;2.36;65.09;100060.34;4470608;32;33875;-76
2022/03/10 04:05:06;;;;;;;21.95;10.55;;;;;;;2.74;64.34;100060.75;4456471;32;34333;-76
2022/03/10 04:07:34;;;;;;;23.10;11.65;;;;;;;2.19;65.87;100071.72;4443565;32;32822;-76
2022/03/10 04:10:03;;;;;;;21.98;11.88;;;;;;;2.24;66.34;100078.78;4455583;32;33878;-76
2022/03/10 04:12:32;;;;;;;20.92;11.05;;;;;;;2.01;66.97;100078.00;4443660;32;35966;-76
2022/03/10 04:15:00;;;;;;;20.75;10.55;;;;;;;2.29;66.75;100084.06;4449542;32;33593;-77
2022/03/10 04:17:28;;;;;;;23.17;11.60;;;;;;;2.34;67.55;100079.09;4456324;32;32990;-76
2022/03/10 04:19:56;;;;;;;25.75;11.95;;;;;;;2.93;66.01;100080.22;4458921;32;34716;-76
2022/03/10 04:22:23;;;;;;;20.33;10.32;;;;;;;3.71;63.19;100084.28;4443384;32;34359;-76
2022/03/10 04:24:51;;;;;;;18.00;9.70;;;;;;;3.70;63.01;100086.81;4455177;32;34544;-74
2022/03/10 04:27:20;;;;;;;19.27;9.50;;;;;;;3.42;64.26;100092.03;4456197;32;34281;-75
2022/03/10 04:29:48;;;;;;;19.52;9.55;;;;;;;3.58;64.07;100093.38;4475917;32;34126;-75
2022/03/10 04:32:16;;;;;;;18.37;9.60;;;;;;;3.04;65.40;100094.28;4471745;32;35015;-75
2022/03/10 04:34:44;;;;;;;21.73;10.02;;;;;;;3.19;65.15;100091.34;4478502;32;33884;-76
2022/03/10 04:37:11;;;;;;;22.10;9.63;;;;;;;3.12;65.34;100097.09;4470075;32;33469;-75
2022/03/10 04:39:39;;;;;;;19.12;9.00;;;;;;;3.52;64.02;100105.19;4469758;32;34879;-75
2022/03/10 04:42:07;;;;;;;20.20;10.48;;;;;;;3.36;64.46;100108.97;4470114;32;35041;-76
2022/03/10 04:44:35;;;;;;;21.67;9.80;;;;;;;3.34;64.79;100113.22;4457190;32;34452;-76
2022/03/10 04:47:03;;;;;;;20.40;9.98;;;;;;;3.54;63.96;100122.41;4470119;32;33501;-75
2022/03/10 04:49:31;;;;;;;17.35;9.43;;;;;;;3.77;63.04;100124.78;4456029;32;34043;-75
2022/03/10 04:51:59;;;;;;;17.90;8.73;;;;;;;3.70;63.06;100133.16;4443133;32;33648;-76
2022/03/10 04:54:27;;;;;;;21.15;9.88;;;;;;;3.83;63.00;100143.03;4456282;32;34502;-77
2022/03/10 04:56:55;;;;;;;16.08;9.18;;;;;;;4.13;61.97;100142.13;4456088;32;34290;-77
2022/03/10 04:59:25;;;;;;;17.52;9.30;;;;;;;3.27;64.82;100144.75;4469337;32;34835;-77
2022/03/10 05:01:52;;;;;;;22.58;10.20;;;;;;;3.21;65.14;100148.87;4457680;32;34910;-77
2022/03/10 05:04:21;;;;;;;18.25;9.20;;;;;;;3.70;62.81;100148.63;4484064;32;35277;-76
2022/03/10 05:06:49;;;;;;;19.60;9.82;;;;;;;3.37;63.88;100139.03;4485657;32;34414;-77
2022/03/10 05:09:17;;;;;;;20.23;10.40;;;;;;;3.88;61.53;100144.03;4463991;32;33887;-76
2022/03/10 05:11:45;;;;;;;17.52;8.35;;;;;;;3.68;62.10;100151.16;4455819;32;35753;-77
2022/03/10 05:14:12;;;;;;;17.95;7.72;;;;;;;3.77;60.12;100155.69;4455181;32;34665;-77
2022/03/10 05:16:40;;;;;;;14.98;7.57;;;;;;;3.31;59.51;100159.44;4469871;32;33545;-76
2022/03/10 05:19:08;;;;;;;15.48;6.95;;;;;;;3.41;58.25;100166.63;4469271;32;33910;-79
2022/03/10 05:21:36;;;;;;;11.55;5.25;;;;;;;3.11;58.48;100169.97;4443050;32;34656;-74
2022/03/10 05:24:05;;;;;;;13.20;5.28;;;;;;;3.05;56.95;100172.34;4471888;32;34433;-72
2022/03/10 05:26:33;;;;;;;13.85;5.30;;;;;;;3.40;55.07;100170.03;4469575;32;34759;-73
2022/03/10 05:29:00;;;;;;;10.40;5.10;;;;;;;3.21;54.74;100173.72;4468516;32;33879;-73
2022/03/10 05:31:28;;;;;;;6.45;4.07;;;;;;;3.50;52.59;100177.22;4469356;32;35047;-74
2022/03/10 05:33:56;;;;;;;7.82;4.22;;;;;;;3.31;52.08;100170.59;4468739;32;34370;-74
2022/03/10 05:36:25;;;;;;;8.70;4.43;;;;;;;3.45;51.84;100177.91;4472116;32;33537;-75
2022/03/10 05:38:53;;;;;;;11.73;4.72;;;;;;;3.23;52.36;100184.94;4487009;32;33983;-74
2022/03/10 05:41:22;;;;;;;7.43;3.72;;;;;;;2.99;52.20;100185.87;4471338;32;34502;-73
2022/03/10 05:43:49;;;;;;;7.30;4.28;;;;;;;3.37;50.23;100190.50;4456788;32;34265;-72
2022/03/10 05:46:17;;;;;;;8.43;3.62;;;;;;;3.10;50.69;100195.66;4470936;32;34208;-75
2022/03/10 05:48:51;;;;;;;8.75;3.78;;;;;;;3.05;50.37;100198.06;4470998;32;33945;-74
2022/03/10 05:51:18;;;;;;;7.85;3.95;;;;;;;3.28;49.46;100201.38;4456879;32;35032;-74
2022/03/10 05:53:50;;;;;;;10.15;4.55;;;;;;;3.61;49.17;100206.75;4457350;32;34490;-79
2022/03/10 05:56:18;;;;;;;8.70;4.07;;;;;;;3.26;49.55;100207.31;4472155;32;33491;-78
2022/03/10 05:58:46;;;;;;;6.57;3.80;;;;;;;3.79;48.39;100221.91;4472941;32;33868;-74
2022/03/10 06:01:14;;;;;;;7.90;3.70;;;;;;;3.50;48.18;100208.12;4458310;32;35786;-74
2022/03/10 06:03:43;;;;;;;7.75;4.00;;;;;;;3.43;48.49;100221.62;4457313;32;34399;-73
2022/03/10 06:06:13;;;;;;;7.47;3.70;;;;;;;4.01;47.50;100219.09;4470799;32;33503;-77
2022/03/10 06:08:42;;;;;;;7.00;3.95;;;;;;;4.28;46.56;100230.22;4481477;32;33962;-77
2022/03/10 06:11:10;;;;;;;8.50;4.15;;;;;;;4.33;46.79;100240.69;4459231;32;35282;-74
2022/03/10 06:13:38;;;;;;;6.78;3.87;;;;;;;4.47;45.42;100243.66;4444221;32;34418;-79
2022/03/10 06:16:05;;;;;;;9.80;4.00;;;;;;;4.28;45.97;100247.41;4456987;32;33415;-79
2022/03/10 06:18:34;;;;;;;8.15;4.07;;;;;;;4.62;45.39;100238.91;4457121;32;33910;-78
2022/03/10 06:21:02;;;;;;;6.75;3.47;;;;;;;4.46;45.89;100247.06;4473414;32;35911;-78
2022/03/10 06:23:29;;;;;;;7.65;3.50;;;;;;;4.22;45.17;100248.09;4471268;32;35263;-79
2022/03/10 06:25:57;;;;;;;8.98;3.72;;;;;;;4.30;44.75;100238.88;4470410;32;34312;-78
2022/03/10 06:28:25;;;;;;;8.45;3.67;;;;;;;3.91;46.22;100251.44;4471117;32;33977;-78
2022/03/10 06:30:56;;;;;;;8.45;3.67;;;;;;;3.83;46.69;100251.22;4481625;32;34201;-77
2022/03/10 06:33:24;;;;;;;7.65;4.25;;;;;;;3.77;48.21;100262.19;4459885;32;34273;-77
2022/03/10 06:35:52;;;;;;;9.20;4.97;;;;;;;4.57;46.12;100256.00;4475561;32;34128;-77
2022/03/10 06:38:19;;;;;;;9.73;4.18;;;;;;;4.15;46.78;100256.47;4471292;32;34837;-77
2022/03/10 06:40:47;;;;;;;6.93;3.65;;;;;;;4.07;47.46;100269.12;4471085;32;34706;-78
2022/03/10 06:43:16;;;;;;;7.97;4.45;;;;;;;3.94;47.52;100273.03;4471266;32;34385;-77
2022/03/10 06:45:44;;;;;;;8.55;3.75;;;;;;;3.82;47.53;100275.22;4470755;32;33530;-79
2022/03/10 06:48:15;;;;;;;7.00;4.53;;;;;;;3.85;47.97;100282.16;4470539;32;34032;-77
2022/03/10 06:50:43;;;;;;;10.48;4.37;;;;;;;4.01;47.41;100283.50;4457013;32;35920;-77
2022/03/10 06:53:12;;;;;;;6.70;3.45;;;;;;;3.58;48.05;100278.78;4471188;32;35197;-77
2022/03/10 06:55:40;;;;;;;9.82;4.22;;;;;;;3.73;48.80;100280.97;4470558;32;33492;-77
2022/03/10 06:58:08;;;;;;;6.37;3.83;;;;;;;3.58;48.14;100280.44;4471008;32;33891;-77
2022/03/10 07:00:36;;;;;;;7.07;3.85;;;;;;;3.48;48.56;100281.88;4470512;32;34997;-77
2022/03/10 07:03:04;;;;;;;7.87;4.28;;;;;;;3.51;48.67;100284.56;4456594;32;34489;-77
2022/03/10 07:05:32;;;;;;;6.50;3.85;;;;;;;3.74;48.33;100289.56;4477645;32;34121;-77
2022/03/10 07:08:00;;;;;;;9.15;4.45;;;;;;;3.80;48.05;100290.63;4486667;32;33592;-77
2022/03/10 07:10:28;;;;;;;7.35;4.30;;;;;;;3.85;47.52;100293.38;4478596;32;35923;-77
2022/03/10 07:12:55;;;;;;;6.53;3.95;;;;;;;4.01;46.75;100289.56;4470924;32;34429;-77
2022/03/10 07:15:23;;;;;;;8.55;3.95;;;;;;;3.85;47.11;100301.09;4470610;32;33549;-77
2022/03/10 07:17:52;;;;;;;6.22;3.45;;;;;;;3.98;46.80;100300.63;4456777;32;32367;-77
2022/03/10 07:20:20;;;;;;;8.13;4.22;;;;;;;3.99;46.67;100311.84;4470416;32;35791;-77
2022/03/10 07:22:48;;;;;;;10.88;4.62;;;;;;;4.32;45.78;100312.00;4456856;32;35287;-77
2022/03/10 07:25:16;;;;;;;9.95;4.20;;;;;;;4.19;45.74;100315.03;4470496;32;33591;-76
2022/03/10 07:27:44;;;;;;;8.00;3.78;;;;;;;4.02;46.14;100311.03;4470985;32;34051;-77
2022/03/10 07:30:12;;;;;;;6.95;4.45;;;;;;;3.63;46.43;100312.38;4456565;32;35481;-76
2022/03/10 07:32:40;;;;;;;8.90;4.20;;;;;;;3.97;45.97;100319.50;4470664;32;34345;-76
2022/03/10 07:35:08;;;;;;;7.65;4.43;;;;;;;3.92;45.98;100318.50;4456049;32;33306;-76
2022/03/10 07:37:36;;;;;;;6.62;3.80;;;;;;;4.21;45.45;100313.38;4470816;32;33906;-76
2022/03/10 07:40:05;;;;;;;10.23;4.43;;;;;;;4.30;45.50;100323.94;4456430;32;35850;-77
2022/03/10 07:42:33;;;;;;;6.90;3.75;;;;;;;4.49;44.25;100314.19;4470713;32;34372;-76
2022/03/10 07:45:00;;;;;;;7.60;3.45;;;;;;;4.45;44.36;100317.53;4470442;32;33512;-77
2022/03/10 07:47:28;;;;;;;8.00;3.58;;;;;;;4.49;44.64;100317.66;4456859;32;34126;-77
2022/03/10 07:49:57;;;;;;;8.27;4.28;;;;;;;4.65;44.09;100311.22;4470225;32;35051;-77
2022/03/10 07:52:25;;;;;;;8.10;4.18;;;;;;;4.67;43.04;100322.47;4470770;32;34380;-77
2022/03/10 07:54:53;;;;;;;7.50;3.58;;;;;;;5.27;42.46;100318.09;4457255;32;34244;-77
2022/03/10 07:57:20;;;;;;;7.12;3.72;;;;;;;5.64;40.49;100325.06;4486353;32;34044;-77
2022/03/10 07:59:48;;;;;;;4.45;2.80;;;;;;;5.48;40.36;100323.81;4483361;32;35852;-76
2022/03/10 08:02:16;;;;;;;6.62;3.33;;;;;;;5.05;40.92;100322.69;4470634;32;34429;-76
2022/03/10 08:04:44;;;;;;;6.57;2.83;;;;;;;5.23;41.01;100327.47;4470182;32;33554;-76
2022/03/10 08:07:12;;;;;;;7.00;3.25;;;;;;;5.32;40.11;100321.66;4470588;32;34040;-76
2022/03/10 08:09:40;;;;;;;4.97;3.30;;;;;;;4.90;40.69;100332.56;4470179;32;34981;-76
2022/03/10 08:12:08;;;;;;;7.47;3.80;;;;;;;5.19;41.09;100327.31;4485936;32;34058;-76
2022/03/10 08:14:36;;;;;;;9.43;4.07;;;;;;;5.00;41.50;100334.59;4474283;32;33426;-77
2022/03/10 08:17:04;;;;;;;6.10;3.33;;;;;;;6.23;39.52;100335.13;4470098;32;33794;-77
2022/03/10 08:19:32;;;;;;;8.55;4.15;;;;;;;7.45;37.06;100332.44;4456593;32;35005;-77
2022/03/10 08:22:00;;;;;;;9.10;4.03;;;;;;;8.34;35.35;100333.84;4470197;32;34319;-77
2022/03/10 08:24:28;;;;;;;8.15;4.20;;;;;;;8.48;34.91;100331.47;4486236;32;33479;-76
2022/03/10 08:26:58;;;;;;;7.95;4.32;;;;;;;8.31;35.13;100345.87;4457392;32;33571;-77
2022/03/10 08:29:25;;;;;;;9.30;4.60;;;;;;;8.65;33.19;100339.50;4470340;32;35047;-76
2022/03/10 08:31:53;;;;;;;9.65;3.67;;;;;;;8.73;32.57;100336.97;4469924;32;35141;-76
2022/03/10 08:34:21;;;;;;;6.47;3.72;;;;;;;8.09;33.50;100335.19;4469652;32;33422;-76
2022/03/10 08:36:49;;;;;;;8.60;4.50;;;;;;;8.33;33.12;100323.47;4469675;32;34602;-76
2022/03/10 08:39:17;;;;;;;8.32;3.78;;;;;;;8.44;32.67;100323.62;4470330;32;34665;-76
2022/03/10 08:41:45;;;;;;;6.95;3.70;;;;;;;8.76;32.72;100326.66;4470003;32;34948;-77
2022/03/10 08:44:13;;;;;;;9.05;4.30;;;;;;;8.98;31.67;100330.34;4470382;32;33387;-76
2022/03/10 08:46:41;;;;;;;7.18;3.65;;;;;;;8.82;32.25;100321.50;4469929;32;33949;-76
2022/03/10 08:49:09;;;;;;;12.25;4.30;;;;;;;8.91;31.91;100329.44;4456285;32;35058;-76
2022/03/10 08:51:37;;;;;;;6.10;3.33;;;;;;;9.08;31.91;100331.34;4469760;32;34473;-77
2022/03/10 08:54:04;;;;;;;7.60;3.92;;;;;;;9.32;31.65;100322.06;4455922;32;33401;-77
2022/03/10 08:56:34;;;;;;;9.60;5.50;;;;;;;9.19;31.52;100337.53;4470761;32;34725;-77
2022/03/10 08:59:02;;;;;;;6.37;4.05;;;;;;;9.81;30.22;100339.00;4470243;32;34930;-76
2022/03/10 09:01:30;;;;;;;6.45;3.58;;;;;;;9.89;30.68;100328.66;4455758;32;34294;-76
2022/03/10 09:03:58;;;;;;;8.23;4.32;;;;;;;9.31;30.00;100331.59;4470261;32;33578;-76
2022/03/10 09:06:27;;;;;;;7.47;3.50;;;;;;;9.71;30.15;100334.59;4456052;32;33901;-77
2022/03/10 09:08:55;;;;;;;13.38;4.93;;;;;;;10.16;28.69;100345.34;4469910;32;35991;-76
2022/03/10 09:11:25;;;;;;;10.75;3.97;;;;;;;9.99;29.27;100338.28;4454941;32;33828;-76
2022/03/10 09:13:53;;;;;;;9.32;4.07;;;;;;;10.63;28.65;100339.59;4459174;32;33516;-76
2022/03/10 09:16:21;;;;;;;8.90;3.45;;;;;;;10.86;27.09;100344.91;4469533;32;33998;-76
2022/03/10 09:18:50;;;;;;;9.38;5.60;;;;;;;11.20;25.78;100334.59;4469520;32;35044;-76
2022/03/10 09:21:18;;;;;;;5.87;3.60;;;;;;;10.98;27.29;100328.44;4471060;32;34431;-77
2022/03/10 09:23:46;;;;;;;7.25;3.58;;;;;;;11.12;24.72;100331.97;4465328;32;33322;-77
2022/03/10 09:26:15;;;;;;;7.47;3.72;;;;;;;10.80;24.74;100350.97;4463146;32;33898;-76
2022/03/10 09:28:44;;;;;;;6.07;3.40;;;;;;;10.03;25.05;100353.06;4450724;32;168332;-77
2022/03/10 09:31:18;;;;;;;6.40;3.28;;;;;;;11.54;23.48;100351.19;4456012;32;35178;-77
2022/03/10 09:33:47;;;;;;;7.25;4.35;;;;;;;11.41;23.16;100344.19;4455642;32;33423;-77
2022/03/10 09:36:15;;;;;;;7.47;3.95;;;;;;;11.84;22.57;100362.53;4468813;32;33877;-77
2022/03/10 09:38:43;;;;;;;7.40;3.45;;;;;;;11.50;22.58;100359.84;4455735;32;35793;-77
2022/03/10 09:41:11;;;;;;;6.80;3.72;;;;;;;12.23;21.48;100358.19;4475981;32;34379;-77
2022/03/10 09:43:39;;;;;;;5.05;3.08;;;;;;;11.43;23.84;100359.84;4485424;32;33522;-77
2022/03/10 09:46:10;;;;;;;6.37;3.47;;;;;;;12.61;20.98;100354.63;4483436;32;34790;-77
2022/03/10 09:48:39;;;;;;;6.25;3.78;;;;;;;13.24;20.70;100353.50;4474265;32;35180;-77
2022/03/10 09:51:08;;;;;;;8.82;4.47;;;;;;;12.60;21.96;100355.50;4469003;32;35233;-77
2022/03/10 09:53:38;;;;;;;6.68;3.72;;;;;;;12.18;22.10;100359.94;4455858;32;34250;-77
2022/03/10 09:56:06;;;;;;;6.93;3.97;;;;;;;12.41;22.11;100357.28;4471546;32;34013;-77
2022/03/10 09:58:34;;;;;;;6.12;3.55;;;;;;;13.34;20.56;100356.97;4469376;32;35128;-77
2022/03/10 10:01:04;;;;;;;6.00;3.42;;;;;;;12.99;20.62;100355.34;4468981;32;34110;-77
2022/03/10 10:03:33;;;;;;;6.55;3.37;;;;;;;12.83;20.74;100362.37;4455639;32;32659;-77
2022/03/10 10:06:05;;;;;;;7.93;3.65;;;;;;;13.31;20.31;100368.31;4455472;32;34597;-77
2022/03/10 10:08:38;;;;;;;9.52;4.12;;;;;;;13.72;20.32;100364.56;4469199;32;35854;-78
2022/03/10 10:11:07;;;;;;;6.70;3.20;;;;;;;13.40;20.52;100367.41;4480389;32;34377;-77
2022/03/10 10:13:39;;;;;;;8.35;4.78;;;;;;;13.57;20.25;100369.91;4468999;32;33311;-77
2022/03/10 10:16:14;;;;;;;5.87;2.60;;;;;;;13.93;20.34;100367.91;4470047;32;34012;-77
2022/03/10 10:18:46;;;;;;;7.20;3.62;;;;;;;13.58;19.17;100366.41;4469043;32;35917;-77
2022/03/10 10:21:20;;;;;;;5.20;3.22;;;;;;;14.69;19.01;100370.72;4468823;32;35245;-76
2022/03/10 10:23:50;;;;;;;4.72;2.65;;;;;;;15.12;17.92;100372.81;4470716;32;34271;-77
2022/03/10 10:26:20;;;;;;;7.03;3.40;;;;;;;13.47;19.89;100374.34;4456912;32;34055;-77
2022/03/10 10:28:50;;;;;;;8.48;5.32;;;;;;;14.60;18.32;100367.31;4457979;32;35919;-77
2022/03/10 10:31:20;;;;;;;8.88;3.58;;;;;;;15.44;17.92;100372.41;4470278;32;34453;-77
2022/03/10 10:33:58;;;;;;;5.72;3.08;;;;;;;14.68;18.47;100369.88;4454433;32;33445;-77
2022/03/10 10:36:29;;;;;;;5.43;3.22;;;;;;;13.82;19.24;100376.72;4451960;32;34631;-77
2022/03/10 10:39:08;;;;;;;6.53;2.70;;;;;;;14.21;18.50;100374.66;4455608;32;35155;-77
2022/03/10 10:41:38;;;;;;;5.82;2.83;;;;;;;14.63;18.49;100370.78;4469150;32;35170;-78
2022/03/10 10:44:12;;;;;;;5.95;2.92;;;;;;;14.79;18.18;100364.50;4471114;32;33406;-77
2022/03/10 10:46:42;;;;;;;6.25;2.85;;;;;;;16.28;16.41;100362.31;4468512;32;33711;-78
2022/03/10 10:49:16;;;;;;;5.18;2.83;;;;;;;15.64;16.71;100372.09;4469985;32;35059;-77
2022/03/10 10:51:45;;;;;;;5.30;2.78;;;;;;;15.42;15.92;100371.53;4460760;32;35231;-77
2022/03/10 10:54:26;;;;;;;5.62;2.75;;;;;;;15.89;16.22;100375.25;4455936;32;32612;-78
2022/03/10 10:57:03;;;;;;;5.32;2.70;;;;;;;14.85;16.43;100377.53;4455535;32;33841;-77
2022/03/10 10:59:32;;;;;;;7.12;3.00;;;;;;;16.16;16.01;100373.06;4455336;32;35225;-77
2022/03/10 11:02:08;;;;;;;7.68;3.12;;;;;;;16.56;15.53;100371.50;4455473;32;34777;-78
2022/03/10 11:04:42;;;;;;;6.30;2.92;;;;;;;16.55;16.06;100369.75;4455026;32;33477;-77
2022/03/10 11:07:11;;;;;;;8.40;3.12;;;;;;;16.42;16.18;100364.72;4455460;32;33784;-77
2022/03/10 11:09:41;;;;;;;4.62;2.90;;;;;;;15.14;16.88;100358.81;4455064;32;34997;-77
2022/03/10 11:12:13;;;;;;;6.85;3.37;;;;;;;16.21;15.99;100372.97;4442533;32;34386;-77
2022/03/10 11:14:43;;;;;;;5.93;3.42;;;;;;;15.67;16.02;100373.81;4453983;32;33305;-78
2022/03/10 11:17:13;;;;;;;7.85;3.45;;;;;;;15.20;17.15;100368.34;4454244;32;33913;-77
2022/03/10 11:19:49;;;;;;;4.95;2.92;;;;;;;15.29;16.93;100373.47;4453896;32;34349;-77
2022/03/10 11:22:58;;;;;;;6.55;3.12;;;;;;;14.54;17.49;100362.13;4454889;32;34343;-77
2022/03/10 11:25:39;;;;;;;5.85;2.95;;;;;;;15.61;17.02;100359.03;4456506;32;33469;-78
2022/03/10 11:28:25;;;;;;;5.65;2.80;;;;;;;15.43;17.04;100362.78;4455388;32;33561;-77
2022/03/10 11:31:02;;;;;;;11.93;4.60;;;;;;;15.24;18.02;100358.69;4454261;32;35921;-78
2022/03/10 11:33:35;;;;;;;11.07;4.35;;;;;;;15.32;19.75;100352.44;4464976;32;35114;-77
2022/03/10 11:36:29;;;;;;;12.02;5.03;;;;;;;15.23;18.98;100355.19;4470484;32;33424;-78
2022/03/10 11:38:59;;;;;;;6.28;3.20;;;;;;;15.97;17.51;100354.12;4471167;32;34006;-77
2022/03/10 11:41:50;;;;;;;6.45;2.92;;;;;;;16.30;17.10;100357.03;4470306;32;34851;-78
2022/03/10 11:44:21;;;;;;;7.37;3.72;;;;;;;16.77;15.95;100347.41;4470787;32;35263;-78